sensor_id;sensor_type;location;lat;lon;timestamp;temperature;humidity
80540;DHT22;69869;48.036;15.780;2024-03-07T00:00:11;14.40;75.10
80540;DHT22;69869;48.036;15.780;2024-03-07T00:02:44;14.40;75.10
80540;DHT22;69869;48.036;15.780;2024-03-07T00:05:10;14.40;75.20
80540;DHT22;69869;48.036;15.780;2024-03-07T00:07:37;14.40;75.10
80540;DHT22;69869;48.036;15.780;2024-03-07T00:10:03;14.40;75.20
80540;DHT22;69869;48.036;15.780;2024-03-07T00:12:29;14.40;75.10
80540;DHT22;69869;48.036;15.780;2024-03-07T00:14:55;14.40;75.20
80540;DHT22;69869;48.036;15.780;2024-03-07T00:17:21;14.40;75.10
80540;DHT22;69869;48.036;15.780;2024-03-07T00:19:48;14.40;75.20
80540;DHT22;69869;48.036;15.780;2024-03-07T00:22:14;14.40;75.20
80540;DHT22;69869;48.036;15.780;2024-03-07T00:24:40;14.40;75.40
80540;DHT22;69869;48.036;15.780;2024-03-07T00:27:06;14.40;75.20
80540;DHT22;69869;48.036;15.780;2024-03-07T00:29:32;14.30;75.20
80540;DHT22;69869;48.036;15.780;2024-03-07T00:32:01;14.40;75.20
80540;DHT22;69869;48.036;15.780;2024-03-07T00:34:27;14.40;75.30
80540;DHT22;69869;48.036;15.780;2024-03-07T00:36:53;14.40;75.20
80540;DHT22;69869;48.036;15.780;2024-03-07T00:39:18;14.40;75.40
80540;DHT22;69869;48.036;15.780;2024-03-07T00:41:45;14.40;75.20
80540;DHT22;69869;48.036;15.780;2024-03-07T00:44:11;14.40;75.30
80540;DHT22;69869;48.036;15.780;2024-03-07T00:46:37;14.40;75.20
80540;DHT22;69869;48.036;15.780;2024-03-07T00:49:03;14.30;75.20
80540;DHT22;69869;48.036;15.780;2024-03-07T00:51:29;14.30;75.30
80540;DHT22;69869;48.036;15.780;2024-03-07T00:53:55;14.30;75.20
80540;DHT22;69869;48.036;15.780;2024-03-07T00:56:21;14.30;75.20
80540;DHT22;69869;48.036;15.780;2024-03-07T00:58:53;14.40;75.40
80540;DHT22;69869;48.036;15.780;2024-03-07T01:01:19;14.30;75.20
80540;DHT22;69869;48.036;15.780;2024-03-07T01:03:45;14.30;75.20
80540;DHT22;69869;48.036;15.780;2024-03-07T01:06:11;14.40;75.50
80540;DHT22;69869;48.036;15.780;2024-03-07T01:08:37;14.30;75.20
80540;DHT22;69869;48.036;15.780;2024-03-07T01:11:03;14.30;75.20
80540;DHT22;69869;48.036;15.780;2024-03-07T01:13:40;14.30;75.20
80540;DHT22;69869;48.036;15.780;2024-03-07T01:16:06;14.30;75.40
80540;DHT22;69869;48.036;15.780;2024-03-07T01:18:32;14.30;75.30
80540;DHT22;69869;48.036;15.780;2024-03-07T01:21:01;14.30;75.30
80540;DHT22;69869;48.036;15.780;2024-03-07T01:23:27;14.40;75.40
80540;DHT22;69869;48.036;15.780;2024-03-07T01:25:56;14.40;75.30
80540;DHT22;69869;48.036;15.780;2024-03-07T01:28:22;14.40;75.40
80540;DHT22;69869;48.036;15.780;2024-03-07T01:30:49;14.40;75.30
80540;DHT22;69869;48.036;15.780;2024-03-07T01:33:15;14.30;75.20
80540;DHT22;69869;48.036;15.780;2024-03-07T01:35:41;14.30;75.20
80540;DHT22;69869;48.036;15.780;2024-03-07T01:38:07;14.30;75.20
80540;DHT22;69869;48.036;15.780;2024-03-07T01:40:34;14.30;75.20
80540;DHT22;69869;48.036;15.780;2024-03-07T01:43:02;14.30;75.30
80540;DHT22;69869;48.036;15.780;2024-03-07T01:45:27;14.30;75.30
80540;DHT22;69869;48.036;15.780;2024-03-07T01:47:53;14.40;75.40
80540;DHT22;69869;48.036;15.780;2024-03-07T01:50:21;14.30;75.30
80540;DHT22;69869;48.036;15.780;2024-03-07T01:52:47;14.30;75.30
80540;DHT22;69869;48.036;15.780;2024-03-07T01:55:15;14.30;75.40
80540;DHT22;69869;48.036;15.780;2024-03-07T01:57:41;14.30;75.30
80540;DHT22;69869;48.036;15.780;2024-03-07T02:00:07;14.30;75.30
80540;DHT22;69869;48.036;15.780;2024-03-07T02:02:34;14.30;75.30
80540;DHT22;69869;48.036;15.780;2024-03-07T02:05:00;14.30;75.20
80540;DHT22;69869;48.036;15.780;2024-03-07T02:07:26;14.30;75.30
80540;DHT22;69869;48.036;15.780;2024-03-07T02:10:05;14.30;75.10
80540;DHT22;69869;48.036;15.780;2024-03-07T02:12:31;14.30;75.30
80540;DHT22;69869;48.036;15.780;2024-03-07T02:14:57;14.30;75.20
80540;DHT22;69869;48.036;15.780;2024-03-07T02:17:27;14.30;75.30
80540;DHT22;69869;48.036;15.780;2024-03-07T02:19:52;14.30;75.10
80540;DHT22;69869;48.036;15.780;2024-03-07T02:22:19;14.30;75.10
80540;DHT22;69869;48.036;15.780;2024-03-07T02:24:45;14.30;75.20
80540;DHT22;69869;48.036;15.780;2024-03-07T02:27:11;14.30;75.20
80540;DHT22;69869;48.036;15.780;2024-03-07T02:29:37;14.30;75.10
80540;DHT22;69869;48.036;15.780;2024-03-07T02:32:03;14.30;75.30
80540;DHT22;69869;48.036;15.780;2024-03-07T02:34:29;14.30;75.20
80540;DHT22;69869;48.036;15.780;2024-03-07T02:36:55;14.30;75.10
80540;DHT22;69869;48.036;15.780;2024-03-07T02:39:21;14.30;75.30
80540;DHT22;69869;48.036;15.780;2024-03-07T02:41:47;14.30;75.30
80540;DHT22;69869;48.036;15.780;2024-03-07T02:44:16;14.30;75.20
80540;DHT22;69869;48.036;15.780;2024-03-07T02:46:41;14.30;75.30
80540;DHT22;69869;48.036;15.780;2024-03-07T02:49:07;14.30;75.30
80540;DHT22;69869;48.036;15.780;2024-03-07T02:51:33;14.30;75.20
80540;DHT22;69869;48.036;15.780;2024-03-07T02:53:59;14.30;75.30
80540;DHT22;69869;48.036;15.780;2024-03-07T02:56:25;14.30;75.30
80540;DHT22;69869;48.036;15.780;2024-03-07T02:58:51;14.30;75.30
80540;DHT22;69869;48.036;15.780;2024-03-07T03:01:17;14.30;75.30
80540;DHT22;69869;48.036;15.780;2024-03-07T03:03:43;14.30;75.30
80540;DHT22;69869;48.036;15.780;2024-03-07T03:06:09;14.30;75.30
80540;DHT22;69869;48.036;15.780;2024-03-07T03:08:35;14.30;75.30
80540;DHT22;69869;48.036;15.780;2024-03-07T03:11:01;14.30;75.40
80540;DHT22;69869;48.036;15.780;2024-03-07T03:13:27;14.30;76.00
80540;DHT22;69869;48.036;15.780;2024-03-07T03:15:54;14.30;75.30
80540;DHT22;69869;48.036;15.780;2024-03-07T03:18:24;14.30;75.30
80540;DHT22;69869;48.036;15.780;2024-03-07T03:20:50;14.30;75.40
80540;DHT22;69869;48.036;15.780;2024-03-07T03:23:16;14.30;75.30
80540;DHT22;69869;48.036;15.780;2024-03-07T03:25:42;14.30;75.20
80540;DHT22;69869;48.036;15.780;2024-03-07T03:28:09;14.30;75.30
80540;DHT22;69869;48.036;15.780;2024-03-07T03:30:40;14.30;75.30
80540;DHT22;69869;48.036;15.780;2024-03-07T03:33:06;14.30;75.40
80540;DHT22;69869;48.036;15.780;2024-03-07T03:35:33;14.30;75.30
80540;DHT22;69869;48.036;15.780;2024-03-07T03:37:59;14.30;75.30
80540;DHT22;69869;48.036;15.780;2024-03-07T03:40:25;14.30;75.20
80540;DHT22;69869;48.036;15.780;2024-03-07T03:42:51;14.30;75.30
80540;DHT22;69869;48.036;15.780;2024-03-07T03:45:17;14.30;75.30
80540;DHT22;69869;48.036;15.780;2024-03-07T03:47:43;14.30;75.20
80540;DHT22;69869;48.036;15.780;2024-03-07T03:50:11;14.30;75.30
80540;DHT22;69869;48.036;15.780;2024-03-07T03:52:37;14.30;75.20
80540;DHT22;69869;48.036;15.780;2024-03-07T03:55:04;14.30;75.30
80540;DHT22;69869;48.036;15.780;2024-03-07T03:57:35;14.30;75.30
80540;DHT22;69869;48.036;15.780;2024-03-07T04:00:04;14.20;75.20
80540;DHT22;69869;48.036;15.780;2024-03-07T04:02:35;14.30;75.20
80540;DHT22;69869;48.036;15.780;2024-03-07T04:05:02;14.30;75.30
80540;DHT22;69869;48.036;15.780;2024-03-07T04:07:29;14.30;75.30
80540;DHT22;69869;48.036;15.780;2024-03-07T04:09:56;14.30;75.20
80540;DHT22;69869;48.036;15.780;2024-03-07T04:12:23;14.30;75.20
80540;DHT22;69869;48.036;15.780;2024-03-07T04:14:52;14.30;75.00
80540;DHT22;69869;48.036;15.780;2024-03-07T04:17:20;14.30;75.20
80540;DHT22;69869;48.036;15.780;2024-03-07T04:19:46;14.30;75.20
80540;DHT22;69869;48.036;15.780;2024-03-07T04:22:12;14.30;75.30
80540;DHT22;69869;48.036;15.780;2024-03-07T04:24:37;14.20;75.20
80540;DHT22;69869;48.036;15.780;2024-03-07T04:27:04;14.30;75.20
80540;DHT22;69869;48.036;15.780;2024-03-07T04:29:33;14.30;75.30
80540;DHT22;69869;48.036;15.780;2024-03-07T04:32:03;14.30;75.10
80540;DHT22;69869;48.036;15.780;2024-03-07T04:34:30;14.20;75.00
80540;DHT22;69869;48.036;15.780;2024-03-07T04:36:59;14.30;75.20
80540;DHT22;69869;48.036;15.780;2024-03-07T04:39:28;14.20;74.90
80540;DHT22;69869;48.036;15.780;2024-03-07T04:41:59;14.30;75.30
80540;DHT22;69869;48.036;15.780;2024-03-07T04:44:26;14.30;75.20
80540;DHT22;69869;48.036;15.780;2024-03-07T04:46:51;14.30;75.30
80540;DHT22;69869;48.036;15.780;2024-03-07T04:49:24;14.20;74.90
80540;DHT22;69869;48.036;15.780;2024-03-07T04:51:51;14.20;75.10
80540;DHT22;69869;48.036;15.780;2024-03-07T04:54:18;14.30;75.30
80540;DHT22;69869;48.036;15.780;2024-03-07T04:56:45;14.30;75.30
80540;DHT22;69869;48.036;15.780;2024-03-07T04:59:11;14.20;75.20
80540;DHT22;69869;48.036;15.780;2024-03-07T05:01:37;14.20;75.30
80540;DHT22;69869;48.036;15.780;2024-03-07T05:04:04;14.20;75.20
80540;DHT22;69869;48.036;15.780;2024-03-07T05:06:30;14.20;75.20
80540;DHT22;69869;48.036;15.780;2024-03-07T05:08:59;14.20;75.20
80540;DHT22;69869;48.036;15.780;2024-03-07T05:11:25;14.30;75.30
80540;DHT22;69869;48.036;15.780;2024-03-07T05:13:51;14.30;75.30
80540;DHT22;69869;48.036;15.780;2024-03-07T05:16:17;14.30;75.30
80540;DHT22;69869;48.036;15.780;2024-03-07T05:18:43;14.30;75.50
80540;DHT22;69869;48.036;15.780;2024-03-07T05:21:08;14.20;75.30
80540;DHT22;69869;48.036;15.780;2024-03-07T05:23:52;14.20;75.20
80540;DHT22;69869;48.036;15.780;2024-03-07T05:26:18;14.20;75.20
80540;DHT22;69869;48.036;15.780;2024-03-07T05:28:44;14.20;75.30
80540;DHT22;69869;48.036;15.780;2024-03-07T05:31:09;14.30;75.40
80540;DHT22;69869;48.036;15.780;2024-03-07T05:33:38;14.30;75.30
80540;DHT22;69869;48.036;15.780;2024-03-07T05:36:04;14.20;75.50
80540;DHT22;69869;48.036;15.780;2024-03-07T05:38:41;14.20;75.40
80540;DHT22;69869;48.036;15.780;2024-03-07T05:41:12;14.20;75.50
80540;DHT22;69869;48.036;15.780;2024-03-07T05:43:40;14.20;75.30
80540;DHT22;69869;48.036;15.780;2024-03-07T05:46:06;14.30;75.40
80540;DHT22;69869;48.036;15.780;2024-03-07T05:48:35;14.30;75.30
80540;DHT22;69869;48.036;15.780;2024-03-07T05:51:01;14.20;75.20
80540;DHT22;69869;48.036;15.780;2024-03-07T05:53:27;14.20;75.40
80540;DHT22;69869;48.036;15.780;2024-03-07T05:55:53;14.20;75.30
80540;DHT22;69869;48.036;15.780;2024-03-07T05:58:18;14.20;75.30
80540;DHT22;69869;48.036;15.780;2024-03-07T06:00:47;14.20;75.20
80540;DHT22;69869;48.036;15.780;2024-03-07T06:03:18;14.20;75.20
80540;DHT22;69869;48.036;15.780;2024-03-07T06:05:46;14.20;75.40
80540;DHT22;69869;48.036;15.780;2024-03-07T06:08:14;14.20;75.40
80540;DHT22;69869;48.036;15.780;2024-03-07T06:10:42;14.20;75.30
80540;DHT22;69869;48.036;15.780;2024-03-07T06:13:08;14.30;75.60
80540;DHT22;69869;48.036;15.780;2024-03-07T06:15:35;14.20;75.50
80540;DHT22;69869;48.036;15.780;2024-03-07T06:18:01;14.20;75.50
80540;DHT22;69869;48.036;15.780;2024-03-07T06:20:29;14.20;75.50
80540;DHT22;69869;48.036;15.780;2024-03-07T06:22:55;14.20;75.40
80540;DHT22;69869;48.036;15.780;2024-03-07T06:25:22;14.30;75.50
80540;DHT22;69869;48.036;15.780;2024-03-07T06:28:12;14.20;75.40
80540;DHT22;69869;48.036;15.780;2024-03-07T06:30:42;14.20;75.50
80540;DHT22;69869;48.036;15.780;2024-03-07T06:33:09;14.20;75.50
80540;DHT22;69869;48.036;15.780;2024-03-07T06:35:38;14.30;75.60
80540;DHT22;69869;48.036;15.780;2024-03-07T06:38:08;14.30;75.50
80540;DHT22;69869;48.036;15.780;2024-03-07T06:40:41;14.20;75.50
80540;DHT22;69869;48.036;15.780;2024-03-07T06:43:08;14.20;75.50
80540;DHT22;69869;48.036;15.780;2024-03-07T06:45:39;14.20;75.50
80540;DHT22;69869;48.036;15.780;2024-03-07T06:48:07;14.20;75.50
80540;DHT22;69869;48.036;15.780;2024-03-07T06:50:34;14.30;75.60
80540;DHT22;69869;48.036;15.780;2024-03-07T06:53:00;14.20;75.50
80540;DHT22;69869;48.036;15.780;2024-03-07T06:55:26;14.30;75.70
80540;DHT22;69869;48.036;15.780;2024-03-07T06:57:52;14.30;75.60
80540;DHT22;69869;48.036;15.780;2024-03-07T07:00:19;14.20;75.40
80540;DHT22;69869;48.036;15.780;2024-03-07T07:02:46;14.30;75.60
80540;DHT22;69869;48.036;15.780;2024-03-07T07:05:12;14.30;75.80
80540;DHT22;69869;48.036;15.780;2024-03-07T07:07:41;14.30;75.60
80540;DHT22;69869;48.036;15.780;2024-03-07T07:10:10;14.20;75.50
80540;DHT22;69869;48.036;15.780;2024-03-07T07:12:42;14.30;75.60
80540;DHT22;69869;48.036;15.780;2024-03-07T07:15:10;14.20;75.60
80540;DHT22;69869;48.036;15.780;2024-03-07T07:17:36;14.20;75.50
80540;DHT22;69869;48.036;15.780;2024-03-07T07:20:01;14.30;75.50
80540;DHT22;69869;48.036;15.780;2024-03-07T07:22:31;14.20;75.60
80540;DHT22;69869;48.036;15.780;2024-03-07T07:24:57;14.30;75.70
80540;DHT22;69869;48.036;15.780;2024-03-07T07:27:22;14.20;75.50
80540;DHT22;69869;48.036;15.780;2024-03-07T07:29:48;14.20;75.70
80540;DHT22;69869;48.036;15.780;2024-03-07T07:32:14;14.20;75.80
80540;DHT22;69869;48.036;15.780;2024-03-07T07:34:39;14.20;75.70
80540;DHT22;69869;48.036;15.780;2024-03-07T07:37:05;14.20;75.70
80540;DHT22;69869;48.036;15.780;2024-03-07T07:39:31;14.20;75.60
80540;DHT22;69869;48.036;15.780;2024-03-07T07:41:57;14.20;75.70
80540;DHT22;69869;48.036;15.780;2024-03-07T07:44:22;14.20;75.60
80540;DHT22;69869;48.036;15.780;2024-03-07T07:46:48;14.20;75.70
80540;DHT22;69869;48.036;15.780;2024-03-07T07:49:15;14.20;75.70
80540;DHT22;69869;48.036;15.780;2024-03-07T07:51:41;14.20;75.70
80540;DHT22;69869;48.036;15.780;2024-03-07T07:54:07;14.20;75.60
80540;DHT22;69869;48.036;15.780;2024-03-07T07:56:35;14.20;75.70
80540;DHT22;69869;48.036;15.780;2024-03-07T07:59:01;14.20;75.70
80540;DHT22;69869;48.036;15.780;2024-03-07T08:01:29;14.20;75.70
80540;DHT22;69869;48.036;15.780;2024-03-07T08:03:55;14.20;75.70
80540;DHT22;69869;48.036;15.780;2024-03-07T08:06:21;14.20;75.70
80540;DHT22;69869;48.036;15.780;2024-03-07T08:08:46;14.20;75.70
80540;DHT22;69869;48.036;15.780;2024-03-07T08:11:12;14.20;75.70
80540;DHT22;69869;48.036;15.780;2024-03-07T08:13:40;14.20;75.70
80540;DHT22;69869;48.036;15.780;2024-03-07T08:16:06;14.20;75.70
80540;DHT22;69869;48.036;15.780;2024-03-07T08:18:32;14.20;75.60
80540;DHT22;69869;48.036;15.780;2024-03-07T08:20:58;14.20;75.60
80540;DHT22;69869;48.036;15.780;2024-03-07T08:23:24;14.20;75.70
80540;DHT22;69869;48.036;15.780;2024-03-07T08:25:54;14.20;75.60
80540;DHT22;69869;48.036;15.780;2024-03-07T08:28:20;14.20;75.70
80540;DHT22;69869;48.036;15.780;2024-03-07T08:30:46;14.20;75.70
80540;DHT22;69869;48.036;15.780;2024-03-07T08:33:11;14.20;75.70
80540;DHT22;69869;48.036;15.780;2024-03-07T08:35:38;14.20;75.60
80540;DHT22;69869;48.036;15.780;2024-03-07T08:38:04;14.20;75.70
80540;DHT22;69869;48.036;15.780;2024-03-07T08:40:30;14.20;75.70
80540;DHT22;69869;48.036;15.780;2024-03-07T08:42:58;14.20;75.60
80540;DHT22;69869;48.036;15.780;2024-03-07T08:45:24;14.20;75.70
80540;DHT22;69869;48.036;15.780;2024-03-07T08:47:52;14.20;75.70
80540;DHT22;69869;48.036;15.780;2024-03-07T08:50:20;14.20;75.60
80540;DHT22;69869;48.036;15.780;2024-03-07T08:52:47;14.20;75.80
80540;DHT22;69869;48.036;15.780;2024-03-07T08:55:16;14.20;75.70
80540;DHT22;69869;48.036;15.780;2024-03-07T08:57:43;14.20;75.70
80540;DHT22;69869;48.036;15.780;2024-03-07T09:00:11;14.20;75.70
80540;DHT22;69869;48.036;15.780;2024-03-07T09:02:51;14.20;76.30
80540;DHT22;69869;48.036;15.780;2024-03-07T09:05:21;14.20;75.60
80540;DHT22;69869;48.036;15.780;2024-03-07T09:07:48;14.20;75.60
80540;DHT22;69869;48.036;15.780;2024-03-07T09:10:14;14.20;75.70
80540;DHT22;69869;48.036;15.780;2024-03-07T09:12:43;14.20;75.90
80540;DHT22;69869;48.036;15.780;2024-03-07T09:15:09;14.20;75.70
80540;DHT22;69869;48.036;15.780;2024-03-07T09:17:40;14.20;75.60
80540;DHT22;69869;48.036;15.780;2024-03-07T09:20:07;14.20;75.60
80540;DHT22;69869;48.036;15.780;2024-03-07T09:22:43;14.20;75.70
80540;DHT22;69869;48.036;15.780;2024-03-07T09:25:09;14.20;75.70
80540;DHT22;69869;48.036;15.780;2024-03-07T09:27:36;14.20;75.80
80540;DHT22;69869;48.036;15.780;2024-03-07T09:30:03;14.20;75.70
80540;DHT22;69869;48.036;15.780;2024-03-07T09:32:29;14.20;75.70
80540;DHT22;69869;48.036;15.780;2024-03-07T09:34:58;14.20;75.70
80540;DHT22;69869;48.036;15.780;2024-03-07T09:37:24;14.10;75.70
80540;DHT22;69869;48.036;15.780;2024-03-07T09:39:50;14.20;75.70
80540;DHT22;69869;48.036;15.780;2024-03-07T09:42:17;14.20;75.90
80540;DHT22;69869;48.036;15.780;2024-03-07T09:44:45;14.10;75.70
80540;DHT22;69869;48.036;15.780;2024-03-07T09:47:12;14.10;75.60
80540;DHT22;69869;48.036;15.780;2024-03-07T09:49:38;14.20;75.60
80540;DHT22;69869;48.036;15.780;2024-03-07T09:52:06;14.20;75.70
80540;DHT22;69869;48.036;15.780;2024-03-07T09:54:37;14.20;75.80
80540;DHT22;69869;48.036;15.780;2024-03-07T09:57:06;14.20;75.80
80540;DHT22;69869;48.036;15.780;2024-03-07T09:59:35;14.10;75.70
80540;DHT22;69869;48.036;15.780;2024-03-07T10:02:06;14.20;75.90
80540;DHT22;69869;48.036;15.780;2024-03-07T10:04:43;14.10;75.70
80540;DHT22;69869;48.036;15.780;2024-03-07T10:07:15;14.10;76.20
80540;DHT22;69869;48.036;15.780;2024-03-07T10:09:40;14.10;75.70
80540;DHT22;69869;48.036;15.780;2024-03-07T10:12:07;14.20;75.80
80540;DHT22;69869;48.036;15.780;2024-03-07T10:14:38;14.20;75.80
80540;DHT22;69869;48.036;15.780;2024-03-07T10:17:04;14.20;75.70
80540;DHT22;69869;48.036;15.780;2024-03-07T10:19:30;14.20;75.80
80540;DHT22;69869;48.036;15.780;2024-03-07T10:21:56;14.10;75.70
80540;DHT22;69869;48.036;15.780;2024-03-07T10:24:25;14.20;75.80
80540;DHT22;69869;48.036;15.780;2024-03-07T10:26:51;14.20;75.90
80540;DHT22;69869;48.036;15.780;2024-03-07T10:29:19;14.20;75.90
80540;DHT22;69869;48.036;15.780;2024-03-07T10:31:46;14.20;75.90
80540;DHT22;69869;48.036;15.780;2024-03-07T10:34:12;14.20;75.80
80540;DHT22;69869;48.036;15.780;2024-03-07T10:36:38;14.10;75.60
80540;DHT22;69869;48.036;15.780;2024-03-07T10:39:05;14.20;75.70
80540;DHT22;69869;48.036;15.780;2024-03-07T10:41:47;14.10;75.60
80540;DHT22;69869;48.036;15.780;2024-03-07T10:44:19;14.20;75.70
80540;DHT22;69869;48.036;15.780;2024-03-07T10:46:52;14.10;75.80
80540;DHT22;69869;48.036;15.780;2024-03-07T10:49:19;14.10;75.60
80540;DHT22;69869;48.036;15.780;2024-03-07T10:51:58;14.10;75.70
80540;DHT22;69869;48.036;15.780;2024-03-07T10:59:56;14.10;75.80
80540;DHT22;69869;48.036;15.780;2024-03-07T11:04:50;14.20;75.80
80540;DHT22;69869;48.036;15.780;2024-03-07T11:07:27;14.10;75.80
80540;DHT22;69869;48.036;15.780;2024-03-07T11:09:53;14.10;75.80
80540;DHT22;69869;48.036;15.780;2024-03-07T11:12:24;14.20;75.90
80540;DHT22;69869;48.036;15.780;2024-03-07T11:14:52;14.10;75.70
80540;DHT22;69869;48.036;15.780;2024-03-07T11:17:19;14.20;75.70
80540;DHT22;69869;48.036;15.780;2024-03-07T11:19:46;14.10;75.70
80540;DHT22;69869;48.036;15.780;2024-03-07T11:22:28;14.10;75.70
80540;DHT22;69869;48.036;15.780;2024-03-07T11:25:05;14.10;75.60
80540;DHT22;69869;48.036;15.780;2024-03-07T11:27:39;14.20;75.70
80540;DHT22;69869;48.036;15.780;2024-03-07T11:30:09;14.10;75.60
80540;DHT22;69869;48.036;15.780;2024-03-07T11:32:37;14.10;75.70
80540;DHT22;69869;48.036;15.780;2024-03-07T11:35:32;14.10;75.80
80540;DHT22;69869;48.036;15.780;2024-03-07T11:38:01;14.10;75.80
80540;DHT22;69869;48.036;15.780;2024-03-07T11:42:56;14.10;75.70
80540;DHT22;69869;48.036;15.780;2024-03-07T11:45:26;14.10;75.70
80540;DHT22;69869;48.036;15.780;2024-03-07T11:47:53;14.10;75.70
80540;DHT22;69869;48.036;15.780;2024-03-07T11:50:26;14.10;75.70
80540;DHT22;69869;48.036;15.780;2024-03-07T11:52:55;14.10;75.80
80540;DHT22;69869;48.036;15.780;2024-03-07T11:55:22;14.10;75.80
80540;DHT22;69869;48.036;15.780;2024-03-07T11:57:48;14.20;75.90
80540;DHT22;69869;48.036;15.780;2024-03-07T12:00:17;14.10;75.80
80540;DHT22;69869;48.036;15.780;2024-03-07T12:02:44;14.10;75.80
80540;DHT22;69869;48.036;15.780;2024-03-07T12:05:09;14.10;75.90
80540;DHT22;69869;48.036;15.780;2024-03-07T12:07:36;14.10;75.80
80540;DHT22;69869;48.036;15.780;2024-03-07T12:10:03;14.10;75.90
80540;DHT22;69869;48.036;15.780;2024-03-07T12:12:30;14.10;75.70
80540;DHT22;69869;48.036;15.780;2024-03-07T12:14:56;14.10;75.70
80540;DHT22;69869;48.036;15.780;2024-03-07T12:17:22;14.10;75.80
80540;DHT22;69869;48.036;15.780;2024-03-07T12:19:49;14.10;75.90
80540;DHT22;69869;48.036;15.780;2024-03-07T12:22:21;14.10;75.90
80540;DHT22;69869;48.036;15.780;2024-03-07T12:25:03;14.10;75.90
80540;DHT22;69869;48.036;15.780;2024-03-07T12:27:33;14.10;75.90
80540;DHT22;69869;48.036;15.780;2024-03-07T12:29:59;14.10;75.80
80540;DHT22;69869;48.036;15.780;2024-03-07T12:32:32;14.10;75.90
80540;DHT22;69869;48.036;15.780;2024-03-07T12:34:58;14.10;75.90
80540;DHT22;69869;48.036;15.780;2024-03-07T12:37:24;14.10;75.80
80540;DHT22;69869;48.036;15.780;2024-03-07T12:39:52;14.10;75.80
80540;DHT22;69869;48.036;15.780;2024-03-07T12:42:27;14.10;75.80
80540;DHT22;69869;48.036;15.780;2024-03-07T12:44:54;14.10;75.90
80540;DHT22;69869;48.036;15.780;2024-03-07T12:47:20;14.10;75.90
80540;DHT22;69869;48.036;15.780;2024-03-07T12:49:46;14.10;75.80
80540;DHT22;69869;48.036;15.780;2024-03-07T12:52:12;14.10;75.90
80540;DHT22;69869;48.036;15.780;2024-03-07T12:54:41;14.10;75.80
80540;DHT22;69869;48.036;15.780;2024-03-07T12:57:10;14.10;76.00
80540;DHT22;69869;48.036;15.780;2024-03-07T12:59:38;14.10;75.90
80540;DHT22;69869;48.036;15.780;2024-03-07T13:02:09;14.10;75.90
80540;DHT22;69869;48.036;15.780;2024-03-07T13:04:35;14.10;76.00
80540;DHT22;69869;48.036;15.780;2024-03-07T13:07:04;14.10;75.80
80540;DHT22;69869;48.036;15.780;2024-03-07T13:09:34;14.10;75.80
80540;DHT22;69869;48.036;15.780;2024-03-07T13:12:00;14.10;75.90
80540;DHT22;69869;48.036;15.780;2024-03-07T13:14:30;14.10;75.90
80540;DHT22;69869;48.036;15.780;2024-03-07T13:17:04;14.10;75.70
80540;DHT22;69869;48.036;15.780;2024-03-07T13:19:32;14.10;75.90
80540;DHT22;69869;48.036;15.780;2024-03-07T13:21:58;14.10;75.90
80540;DHT22;69869;48.036;15.780;2024-03-07T13:24:25;14.10;76.00
80540;DHT22;69869;48.036;15.780;2024-03-07T13:26:50;14.10;75.90
80540;DHT22;69869;48.036;15.780;2024-03-07T13:29:17;14.10;75.70
80540;DHT22;69869;48.036;15.780;2024-03-07T13:31:44;14.10;75.90
80540;DHT22;69869;48.036;15.780;2024-03-07T13:34:10;14.10;75.70
80540;DHT22;69869;48.036;15.780;2024-03-07T13:36:43;14.10;75.70
80540;DHT22;69869;48.036;15.780;2024-03-07T13:39:09;14.10;75.70
80540;DHT22;69869;48.036;15.780;2024-03-07T13:41:40;14.10;75.80
80540;DHT22;69869;48.036;15.780;2024-03-07T13:44:06;14.10;75.90
80540;DHT22;69869;48.036;15.780;2024-03-07T13:46:32;14.10;75.80
80540;DHT22;69869;48.036;15.780;2024-03-07T13:49:02;14.10;75.90
80540;DHT22;69869;48.036;15.780;2024-03-07T13:51:40;14.10;75.90
80540;DHT22;69869;48.036;15.780;2024-03-07T13:54:19;14.10;75.70
80540;DHT22;69869;48.036;15.780;2024-03-07T13:57:24;14.10;75.90
80540;DHT22;69869;48.036;15.780;2024-03-07T14:00:16;14.10;76.50
80540;DHT22;69869;48.036;15.780;2024-03-07T14:09:13;14.10;75.80
80540;DHT22;69869;48.036;15.780;2024-03-07T14:11:54;14.10;75.80
80540;DHT22;69869;48.036;15.780;2024-03-07T14:23:19;14.10;75.80
80540;DHT22;69869;48.036;15.780;2024-03-07T14:31:11;14.10;75.90
80540;DHT22;69869;48.036;15.780;2024-03-07T14:37:04;14.10;76.00
80540;DHT22;69869;48.036;15.780;2024-03-07T14:39:34;14.10;75.90
80540;DHT22;69869;48.036;15.780;2024-03-07T14:42:05;14.00;75.90
80540;DHT22;69869;48.036;15.780;2024-03-07T14:44:39;14.10;76.00
80540;DHT22;69869;48.036;15.780;2024-03-07T14:47:07;14.10;76.00
80540;DHT22;69869;48.036;15.780;2024-03-07T14:49:37;14.10;76.00
80540;DHT22;69869;48.036;15.780;2024-03-07T14:52:03;14.00;76.00
80540;DHT22;69869;48.036;15.780;2024-03-07T14:54:37;14.00;76.00
80540;DHT22;69869;48.036;15.780;2024-03-07T14:57:04;14.10;76.00
80540;DHT22;69869;48.036;15.780;2024-03-07T14:59:33;14.10;76.10
80540;DHT22;69869;48.036;15.780;2024-03-07T15:01:59;14.10;76.00
80540;DHT22;69869;48.036;15.780;2024-03-07T15:04:29;14.00;76.00
80540;DHT22;69869;48.036;15.780;2024-03-07T15:06:59;14.00;75.90
80540;DHT22;69869;48.036;15.780;2024-03-07T15:09:27;14.10;76.10
80540;DHT22;69869;48.036;15.780;2024-03-07T15:11:55;14.10;75.90
80540;DHT22;69869;48.036;15.780;2024-03-07T15:14:21;14.00;75.90
80540;DHT22;69869;48.036;15.780;2024-03-07T15:16:47;14.10;76.10
80540;DHT22;69869;48.036;15.780;2024-03-07T15:19:14;14.10;76.00
80540;DHT22;69869;48.036;15.780;2024-03-07T15:21:40;14.10;76.20
80540;DHT22;69869;48.036;15.780;2024-03-07T15:24:06;14.10;76.00
80540;DHT22;69869;48.036;15.780;2024-03-07T15:26:32;14.10;76.20
80540;DHT22;69869;48.036;15.780;2024-03-07T15:28:58;14.10;76.10
80540;DHT22;69869;48.036;15.780;2024-03-07T15:31:26;14.10;75.90
80540;DHT22;69869;48.036;15.780;2024-03-07T15:33:52;14.10;76.20
80540;DHT22;69869;48.036;15.780;2024-03-07T15:36:18;14.00;76.10
80540;DHT22;69869;48.036;15.780;2024-03-07T15:38:45;14.10;76.10
80540;DHT22;69869;48.036;15.780;2024-03-07T15:41:11;14.10;76.10
80540;DHT22;69869;48.036;15.780;2024-03-07T15:43:41;14.10;76.00
80540;DHT22;69869;48.036;15.780;2024-03-07T15:46:13;14.10;76.10
80540;DHT22;69869;48.036;15.780;2024-03-07T15:48:44;14.10;75.90
80540;DHT22;69869;48.036;15.780;2024-03-07T15:51:09;14.10;76.20
80540;DHT22;69869;48.036;15.780;2024-03-07T15:53:37;14.00;75.90